sensor_id;sensor_type;location;lat;lon;timestamp;pressure;altitude;pressure_sealevel;temperature;humidity
31005;BME280;17676;52.254;4.490;2023-07-29T00:00:45;100071.75;;;18.97;100.00
31005;BME280;17676;52.254;4.490;2023-07-29T00:03:11;100071.75;;;18.92;100.00
31005;BME280;17676;52.254;4.490;2023-07-29T00:05:37;100064.13;;;18.89;100.00
31005;BME280;17676;52.254;4.490;2023-07-29T00:08:03;100074.50;;;18.92;100.00
31005;BME280;17676;52.254;4.490;2023-07-29T00:10:28;100065.78;;;18.85;100.00
31005;BME280;17676;52.254;4.490;2023-07-29T00:12:54;100061.38;;;18.89;100.00
31005;BME280;17676;52.254;4.490;2023-07-29T00:15:20;100058.56;;;18.99;100.00
31005;BME280;17676;52.254;4.490;2023-07-29T00:17:45;100058.03;;;19.02;100.00
31005;BME280;17676;52.254;4.490;2023-07-29T00:20:10;100051.69;;;19.01;100.00
31005;BME280;17676;52.254;4.490;2023-07-29T00:22:38;100047.09;;;18.92;100.00
31005;BME280;17676;52.254;4.490;2023-07-29T00:25:04;100041.63;;;18.87;100.00
31005;BME280;17676;52.254;4.490;2023-07-29T00:27:30;100041.59;;;18.92;100.00
31005;BME280;17676;52.254;4.490;2023-07-29T00:29:55;100041.63;;;18.87;100.00
31005;BME280;17676;52.254;4.490;2023-07-29T00:32:20;100049.22;;;19.00;100.00
31005;BME280;17676;52.254;4.490;2023-07-29T00:34:46;100047.91;;;18.92;100.00
31005;BME280;17676;52.254;4.490;2023-07-29T00:37:11;100048.69;;;19.03;100.00
31005;BME280;17676;52.254;4.490;2023-07-29T00:39:37;100047.00;;;19.07;100.00
31005;BME280;17676;52.254;4.490;2023-07-29T00:42:03;100041.53;;;19.07;100.00
31005;BME280;17676;52.254;4.490;2023-07-29T00:44:29;100044.81;;;19.04;100.00
31005;BME280;17676;52.254;4.490;2023-07-29T00:46:57;100051.47;;;18.98;100.00
31005;BME280;17676;52.254;4.490;2023-07-29T00:49:22;100047.09;;;18.92;100.00
31005;BME280;17676;52.254;4.490;2023-07-29T00:51:47;100036.16;;;18.87;100.00
31005;BME280;17676;52.254;4.490;2023-07-29T00:54:13;100044.38;;;18.87;100.00
31005;BME280;17676;52.254;4.490;2023-07-29T00:56:40;100044.94;;;18.84;100.00
31005;BME280;17676;52.254;4.490;2023-07-29T00:59:05;100042.22;;;18.79;100.00
31005;BME280;17676;52.254;4.490;2023-07-29T01:01:31;100044.44;;;18.77;100.00
31005;BME280;17676;52.254;4.490;2023-07-29T01:03:57;100034.88;;;18.64;100.00
31005;BME280;17676;52.254;4.490;2023-07-29T01:06:31;100032.38;;;18.73;100.00
31005;BME280;17676;52.254;4.490;2023-07-29T01:11:52;100033.16;;;18.78;100.00
31005;BME280;17676;52.254;4.490;2023-07-29T01:14:40;100036.72;;;18.79;100.00
31005;BME280;17676;52.254;4.490;2023-07-29T01:17:13;100036.19;;;18.82;100.00
31005;BME280;17676;52.254;4.490;2023-07-29T01:19:55;100041.66;;;18.82;100.00
31005;BME280;17676;52.254;4.490;2023-07-29T01:22:24;100021.94;;;18.75;100.00
31005;BME280;17676;52.254;4.490;2023-07-29T01:24:49;100022.22;;;18.73;100.00
31005;BME280;17676;52.254;4.490;2023-07-29T01:27:15;100039.50;;;18.74;100.00
31005;BME280;17676;52.254;4.490;2023-07-29T01:29:40;100029.66;;;18.68;100.00
31005;BME280;17676;52.254;4.490;2023-07-29T01:35:17;100032.38;;;18.78;100.00
31005;BME280;17676;52.254;4.490;2023-07-29T01:37:49;100041.09;;;18.80;100.00
31005;BME280;17676;52.254;4.490;2023-07-29T01:40:17;100040.03;;;18.76;100.00
31005;BME280;17676;52.254;4.490;2023-07-29T01:42:43;100043.88;;;18.75;100.00
31005;BME280;17676;52.254;4.490;2023-07-29T01:45:10;100037.28;;;18.76;100.00
31005;BME280;17676;52.254;4.490;2023-07-29T01:47:36;100030.13;;;18.80;100.00
31005;BME280;17676;52.254;4.490;2023-07-29T01:50:03;100037.00;;;18.77;100.00
31005;BME280;17676;52.254;4.490;2023-07-29T01:52:29;100041.09;;;18.85;100.00
31005;BME280;17676;52.254;4.490;2023-07-29T01:54:54;100036.72;;;18.79;100.00
31005;BME280;17676;52.254;4.490;2023-07-29T01:57:20;100028.00;;;18.77;100.00
31005;BME280;17676;52.254;4.490;2023-07-29T01:59:45;100036.19;;;18.82;100.00
31005;BME280;17676;52.254;4.490;2023-07-29T02:02:10;100029.63;;;18.78;100.00
31005;BME280;17676;52.254;4.490;2023-07-29T02:04:36;100044.16;;;18.73;100.00
31005;BME280;17676;52.254;4.490;2023-07-29T02:07:02;100043.59;;;18.76;100.00
31005;BME280;17676;52.254;4.490;2023-07-29T02:09:27;100035.66;;;18.75;100.00
31005;BME280;17676;52.254;4.490;2023-07-29T02:11:53;100036.16;;;18.87;100.00
31005;BME280;17676;52.254;4.490;2023-07-29T02:14:18;100037.25;;;18.86;100.00
31005;BME280;17676;52.254;4.490;2023-07-29T02:16:43;100037.56;;;18.79;100.00
31005;BME280;17676;52.254;4.490;2023-07-29T02:19:09;100036.69;;;18.84;100.00
31005;BME280;17676;52.254;4.490;2023-07-29T02:21:35;100031.22;;;18.84;100.00
31005;BME280;17676;52.254;4.490;2023-07-29T02:24:00;100030.13;;;18.85;100.00
31005;BME280;17676;52.254;4.490;2023-07-29T02:26:25;100030.38;;;18.88;100.00
31005;BME280;17676;52.254;4.490;2023-07-29T02:28:51;100030.94;;;18.85;100.00
31005;BME280;17676;52.254;4.490;2023-07-29T02:31:24;100027.38;;;18.90;100.00
31005;BME280;17676;52.254;4.490;2023-07-29T02:33:50;100018.91;;;18.81;100.00
31005;BME280;17676;52.254;4.490;2023-07-29T02:36:16;100017.50;;;18.84;100.00
31005;BME280;17676;52.254;4.490;2023-07-29T02:38:41;100024.66;;;18.85;100.00
31005;BME280;17676;52.254;4.490;2023-07-29T02:41:08;100028.47;;;18.84;100.00
31005;BME280;17676;52.254;4.490;2023-07-29T02:43:35;100007.69;;;18.78;100.00
31005;BME280;17676;52.254;4.490;2023-07-29T02:46:03;100006.53;;;18.84;100.00
31005;BME280;17676;52.254;4.490;2023-07-29T02:48:29;100016.66;;;18.88;100.00
31005;BME280;17676;52.254;4.490;2023-07-29T02:50:55;100004.03;;;18.92;100.00
31005;BME280;17676;52.254;4.490;2023-07-29T02:53:21;99996.09;;;18.91;100.00
31005;BME280;17676;52.254;4.490;2023-07-29T02:55:47;100002.69;;;18.90;100.00
31005;BME280;17676;52.254;4.490;2023-07-29T02:58:12;99998.88;;;18.86;100.00
31005;BME280;17676;52.254;4.490;2023-07-29T03:00:37;99998.78;;;18.96;100.00
31005;BME280;17676;52.254;4.490;2023-07-29T03:03:04;99994.38;;;19.00;100.00
31005;BME280;17676;52.254;4.490;2023-07-29T03:05:29;99995.22;;;19.00;100.00
31005;BME280;17676;52.254;4.490;2023-07-29T03:07:55;100008.91;;;19.00;100.00
31005;BME280;17676;52.254;4.490;2023-07-29T03:10:20;100000.44;;;18.97;100.00
31005;BME280;17676;52.254;4.490;2023-07-29T03:12:46;99997.47;;;18.88;100.00
31005;BME280;17676;52.254;4.490;2023-07-29T03:15:11;99992.81;;;18.84;100.00
31005;BME280;17676;52.254;4.490;2023-07-29T03:17:37;99993.94;;;18.83;100.00
31005;BME280;17676;52.254;4.490;2023-07-29T03:20:02;99996.13;;;18.86;100.00
31005;BME280;17676;52.254;4.490;2023-07-29T03:22:28;99992.50;;;18.90;100.00
31005;BME280;17676;52.254;4.490;2023-07-29T03:24:53;100000.50;;;18.87;100.00
31005;BME280;17676;52.254;4.490;2023-07-29T03:27:19;99995.63;;;18.74;100.00
31005;BME280;17676;52.254;4.490;2023-07-29T03:29:44;100008.44;;;18.88;100.00
31005;BME280;17676;52.254;4.490;2023-07-29T03:32:11;100012.25;;;18.92;100.00
31005;BME280;17676;52.254;4.490;2023-07-29T03:34:36;100003.75;;;18.94;100.00
31005;BME280;17676;52.254;4.490;2023-07-29T03:37:02;100000.44;;;18.97;100.00
31005;BME280;17676;52.254;4.490;2023-07-29T03:39:27;100005.38;;;18.95;100.00
31005;BME280;17676;52.254;4.490;2023-07-29T03:41:53;100013.56;;;19.05;100.00
31005;BME280;17676;52.254;4.490;2023-07-29T03:44:18;100016.59;;;19.03;100.00
31005;BME280;17676;52.254;4.490;2023-07-29T03:46:44;99997.09;;;19.05;100.00
31005;BME280;17676;52.254;4.490;2023-07-29T03:49:10;100001.47;;;19.06;100.00
31005;BME280;17676;52.254;4.490;2023-07-29T03:51:35;100012.97;;;19.08;100.00
31005;BME280;17676;52.254;4.490;2023-07-29T03:54:01;100022.88;;;19.04;100.00
31005;BME280;17676;52.254;4.490;2023-07-29T03:56:26;100027.84;;;19.02;100.00
31005;BME280;17676;52.254;4.490;2023-07-29T03:58:52;100026.19;;;19.06;100.00
31005;BME280;17676;52.254;4.490;2023-07-29T04:01:18;100017.91;;;19.11;100.00
31005;BME280;17676;52.254;4.490;2023-07-29T04:03:45;100012.97;;;19.08;100.00
31005;BME280;17676;52.254;4.490;2023-07-29T04:06:11;100017.66;;;19.07;100.00
31005;BME280;17676;52.254;4.490;2023-07-29T04:08:37;100019.28;;;19.08;100.00
31005;BME280;17676;52.254;4.490;2023-07-29T04:11:02;100019.81;;;19.10;100.00
31005;BME280;17676;52.254;4.490;2023-07-29T04:13:28;100015.75;;;19.03;100.00
31005;BME280;17676;52.254;4.490;2023-07-29T04:15:53;100018.28;;;18.94;100.00
31005;BME280;17676;52.254;4.490;2023-07-29T04:18:19;100012.50;;;19.01;100.00
31005;BME280;17676;52.254;4.490;2023-07-29T04:20:44;100020.66;;;19.11;100.00
31005;BME280;17676;52.254;4.490;2023-07-29T04:23:09;99999.88;;;19.00;100.00
31005;BME280;17676;52.254;4.490;2023-07-29T04:25:35;100014.38;;;19.05;100.00
31005;BME280;17676;52.254;4.490;2023-07-29T04:28:00;100022.09;;;18.98;100.00
31005;BME280;17676;52.254;4.490;2023-07-29T04:30:28;100015.25;;;18.96;100.00
31005;BME280;17676;52.254;4.490;2023-07-29T04:32:53;100009.19;;;18.99;100.00
31005;BME280;17676;52.254;4.490;2023-07-29T04:35:19;100018.47;;;19.08;100.00
31005;BME280;17676;52.254;4.490;2023-07-29T04:37:44;100015.72;;;19.13;100.00
31005;BME280;17676;52.254;4.490;2023-07-29T04:40:10;100027.75;;;19.17;100.00
31005;BME280;17676;52.254;4.490;2023-07-29T04:42:36;100027.72;;;19.22;100.00
31005;BME280;17676;52.254;4.490;2023-07-29T04:45:02;100035.41;;;19.20;100.00
31005;BME280;17676;52.254;4.490;2023-07-29T04:47:28;100013.16;;;19.21;100.00
31005;BME280;17676;52.254;4.490;2023-07-29T04:49:53;100019.47;;;19.22;100.00
31005;BME280;17676;52.254;4.490;2023-07-29T04:52:19;100014.00;;;19.22;100.00
31005;BME280;17676;52.254;4.490;2023-07-29T04:54:44;100022.50;;;19.26;100.00
31005;BME280;17676;52.254;4.490;2023-07-29T04:57:10;100024.91;;;19.32;100.00
31005;BME280;17676;52.254;4.490;2023-07-29T04:59:37;100022.44;;;19.36;100.00
31005;BME280;17676;52.254;4.490;2023-07-29T05:02:02;100023.28;;;19.31;100.00
31005;BME280;17676;52.254;4.490;2023-07-29T05:04:28;100016.66;;;19.37;100.00
31005;BME280;17676;52.254;4.490;2023-07-29T05:06:53;100019.72;;;19.31;100.00
31005;BME280;17676;52.254;4.490;2023-07-29T05:09:19;100029.91;;;19.25;100.00
31005;BME280;17676;52.254;4.490;2023-07-29T05:11:45;100029.91;;;19.25;100.00
31005;BME280;17676;52.254;4.490;2023-07-29T05:14:13;100035.38;;;19.30;100.00
31005;BME280;17676;52.254;4.490;2023-07-29T05:16:38;100035.69;;;19.24;100.00
31005;BME280;17676;52.254;4.490;2023-07-29T05:19:04;100029.34;;;19.28;100.00
31005;BME280;17676;52.254;4.490;2023-07-29T05:21:29;100022.22;;;19.27;100.00
31005;BME280;17676;52.254;4.490;2023-07-29T05:23:55;100019.19;;;19.29;100.00
31005;BME280;17676;52.254;4.490;2023-07-29T05:26:20;100021.56;;;19.40;100.00
31005;BME280;17676;52.254;4.490;2023-07-29T05:28:46;100027.16;;;19.30;100.00
31005;BME280;17676;52.254;4.490;2023-07-29T05:31:11;100018.31;;;19.38;100.00
31005;BME280;17676;52.254;4.490;2023-07-29T05:33:37;100024.25;;;19.45;100.00
31005;BME280;17676;52.254;4.490;2023-07-29T05:36:02;100016.59;;;19.47;100.00
31005;BME280;17676;52.254;4.490;2023-07-29T05:38:27;100009.41;;;19.51;100.00
31005;BME280;17676;52.254;4.490;2023-07-29T05:40:53;100011.81;;;19.58;100.00
31005;BME280;17676;52.254;4.490;2023-07-29T05:43:18;100021.13;;;19.62;100.00
31005;BME280;17676;52.254;4.490;2023-07-29T05:45:44;100003.97;;;19.46;100.00
31005;BME280;17676;52.254;4.490;2023-07-29T05:48:09;100017.69;;;19.46;100.00
31005;BME280;17676;52.254;4.490;2023-07-29T05:50:34;100008.25;;;19.57;100.00
31005;BME280;17676;52.254;4.490;2023-07-29T05:53:00;99997.88;;;19.49;100.00
31005;BME280;17676;52.254;4.490;2023-07-29T05:55:25;100013.50;;;19.54;100.00
31005;BME280;17676;52.254;4.490;2023-07-29T05:57:50;100005.28;;;19.54;100.00
31005;BME280;17676;52.254;4.490;2023-07-29T06:00:18;100014.63;;;19.53;100.00
31005;BME280;17676;52.254;4.490;2023-07-29T06:02:44;100028.06;;;19.54;100.00
31005;BME280;17676;52.254;4.490;2023-07-29T06:05:09;100025.03;;;19.56;100.00
31005;BME280;17676;52.254;4.490;2023-07-29T06:07:34;100027.00;;;19.50;100.00
31005;BME280;17676;52.254;4.490;2023-07-29T06:10:00;100027.00;;;19.45;100.00
31005;BME280;17676;52.254;4.490;2023-07-29T06:12:26;100038.53;;;19.47;100.00
31005;BME280;17676;52.254;4.490;2023-07-29T06:14:52;100031.75;;;19.40;100.00
31005;BME280;17676;52.254;4.490;2023-07-29T06:17:17;100042.34;;;19.51;100.00
31005;BME280;17676;52.254;4.490;2023-07-29T06:19:42;100034.78;;;19.38;100.00
31005;BME280;17676;52.254;4.490;2023-07-29T06:22:09;100051.72;;;19.45;100.00
31005;BME280;17676;52.254;4.490;2023-07-29T06:24:35;100043.53;;;19.40;100.00
31005;BME280;17676;52.254;4.490;2023-07-29T06:27:00;100046.72;;;19.52;100.00
31005;BME280;17676;52.254;4.490;2023-07-29T06:29:26;100044.25;;;19.51;100.00
31005;BME280;17676;52.254;4.490;2023-07-29T06:31:51;100051.91;;;19.59;100.00
31005;BME280;17676;52.254;4.490;2023-07-29T06:34:17;100046.69;;;19.57;100.00
31005;BME280;17676;52.254;4.490;2023-07-29T06:36:43;100048.66;;;19.85;100.00
31005;BME280;17676;52.254;4.490;2023-07-29T06:39:09;100044.03;;;20.14;100.00
31005;BME280;17676;52.254;4.490;2023-07-29T06:41:35;100032.53;;;20.07;100.00
31005;BME280;17676;52.254;4.490;2023-07-29T06:44:00;100043.59;;;19.97;100.00
31005;BME280;17676;52.254;4.490;2023-07-29T06:46:25;100045.13;;;20.08;100.00
31005;BME280;17676;52.254;4.490;2023-07-29T06:48:51;100035.91;;;19.99;100.00
31005;BME280;17676;52.254;4.490;2023-07-29T06:51:16;100040.72;;;20.12;100.00
31005;BME280;17676;52.254;4.490;2023-07-29T06:53:42;100041.34;;;20.04;100.00
31005;BME280;17676;52.254;4.490;2023-07-29T06:56:07;100046.22;;;20.12;100.00
31005;BME280;17676;52.254;4.490;2023-07-29T06:58:34;100037.41;;;20.15;100.00
31005;BME280;17676;52.254;4.490;2023-07-29T07:01:00;100044.13;;;20.28;100.00
31005;BME280;17676;52.254;4.490;2023-07-29T07:03:25;100029.81;;;20.31;100.00
31005;BME280;17676;52.254;4.490;2023-07-29T07:05:51;100025.50;;;20.48;100.00
31005;BME280;17676;52.254;4.490;2023-07-29T07:08:16;100022.09;;;20.56;100.00
31005;BME280;17676;52.254;4.490;2023-07-29T07:10:42;100025.72;;;20.75;100.00
31005;BME280;17676;52.254;4.490;2023-07-29T07:13:07;100022.28;;;20.65;100.00
31005;BME280;17676;52.254;4.490;2023-07-29T07:15:33;100034.28;;;20.50;100.00
31005;BME280;17676;52.254;4.490;2023-07-29T07:17:58;100034.50;;;20.02;100.00
31005;BME280;17676;52.254;4.490;2023-07-29T07:20:24;100039.44;;;20.00;100.00
31005;BME280;17676;52.254;4.490;2023-07-29T07:22:50;100051.81;;;20.02;100.00
31005;BME280;17676;52.254;4.490;2023-07-29T07:25:15;100054.25;;;20.04;100.00
31005;BME280;17676;52.254;4.490;2023-07-29T07:27:41;100051.81;;;20.02;100.00
31005;BME280;17676;52.254;4.490;2023-07-29T07:30:07;100079.34;;;19.92;100.00
31005;BME280;17676;52.254;4.490;2023-07-29T07:32:32;100070.97;;;20.12;100.00
31005;BME280;17676;52.254;4.490;2023-07-29T07:34:58;100056.78;;;20.52;100.00
31005;BME280;17676;52.254;4.490;2023-07-29T07:37:24;100051.53;;;20.79;100.00
31005;BME280;17676;52.254;4.490;2023-07-29T07:39:49;100047.34;;;20.82;100.00
31005;BME280;17676;52.254;4.490;2023-07-29T07:42:15;100041.97;;;20.72;100.00
31005;BME280;17676;52.254;4.490;2023-07-29T07:44:41;100049.41;;;20.48;100.00
31005;BME280;17676;52.254;4.490;2023-07-29T07:47:06;100055.25;;;20.18;100.00
31005;BME280;17676;52.254;4.490;2023-07-29T07:49:32;100041.44;;;19.94;100.00
31005;BME280;17676;52.254;4.490;2023-07-29T07:51:57;100055.75;;;19.91;100.00
31005;BME280;17676;52.254;4.490;2023-07-29T07:54:23;100076.47;;;20.07;100.00
31005;BME280;17676;52.254;4.490;2023-07-29T07:56:48;100067.34;;;20.17;100.00
31005;BME280;17676;52.254;4.490;2023-07-29T07:59:14;100056.72;;;20.10;100.00
31005;BME280;17676;52.254;4.490;2023-07-29T08:01:42;100053.94;;;20.05;100.00
31005;BME280;17676;52.254;4.490;2023-07-29T08:04:08;100064.44;;;20.03;100.00
31005;BME280;17676;52.254;4.490;2023-07-29T08:06:34;100074.84;;;20.06;100.00
31005;BME280;17676;52.254;4.490;2023-07-29T08:09:00;100067.88;;;19.85;100.00
31005;BME280;17676;52.254;4.490;2023-07-29T08:11:26;100088.59;;;20.06;100.00
31005;BME280;17676;52.254;4.490;2023-07-29T08:13:52;100079.69;;;20.19;100.00
31005;BME280;17676;52.254;4.490;2023-07-29T08:16:17;100071.50;;;20.14;100.00
31005;BME280;17676;52.254;4.490;2023-07-29T08:18:43;100074.69;;;20.26;100.00
31005;BME280;17676;52.254;4.490;2023-07-29T08:21:09;100086.81;;;20.20;100.00
31005;BME280;17676;52.254;4.490;2023-07-29T08:23:35;100073.19;;;20.10;100.00
31005;BME280;17676;52.254;4.490;2023-07-29T08:26:04;100082.53;;;20.04;100.00
31005;BME280;17676;52.254;4.490;2023-07-29T08:28:31;100090.00;;;20.32;100.00
31005;BME280;17676;52.254;4.490;2023-07-29T08:30:57;100086.03;;;20.43;100.00
31005;BME280;17676;52.254;4.490;2023-07-29T08:33:22;100085.56;;;20.36;100.00
31005;BME280;17676;52.254;4.490;2023-07-29T08:35:48;100079.69;;;20.19;100.00
31005;BME280;17676;52.254;4.490;2023-07-29T08:38:13;100069.44;;;19.96;100.00
31005;BME280;17676;52.254;4.490;2023-07-29T08:40:46;100079.78;;;19.76;100.00
31005;BME280;17676;52.254;4.490;2023-07-29T08:43:17;100091.56;;;19.76;100.00
31005;BME280;17676;52.254;4.490;2023-07-29T08:45:44;100083.78;;;19.88;100.00
31005;BME280;17676;52.254;4.490;2023-07-29T08:48:15;100072.31;;;20.15;100.00
31005;BME280;17676;52.254;4.490;2023-07-29T08:50:46;100072.69;;;21.02;100.00
31005;BME280;17676;52.254;4.490;2023-07-29T08:53:12;100064.59;;;21.48;100.00
31005;BME280;17676;52.254;4.490;2023-07-29T08:55:38;100058.44;;;21.37;100.00
31005;BME280;17676;52.254;4.490;2023-07-29T08:58:04;100038.66;;;21.35;100.00
31005;BME280;17676;52.254;4.490;2023-07-29T09:00:31;100033.13;;;21.17;100.00
31005;BME280;17676;52.254;4.490;2023-07-29T09:02:56;100089.66;;;20.86;100.00
31005;BME280;17676;52.254;4.490;2023-07-29T09:05:27;100105.22;;;20.72;100.00
31005;BME280;17676;52.254;4.490;2023-07-29T09:07:54;100112.91;;;21.40;100.00
31005;BME280;17676;52.254;4.490;2023-07-29T09:10:25;100115.13;;;21.38;100.00
31005;BME280;17676;52.254;4.490;2023-07-29T09:12:51;100096.16;;;22.24;100.00
31005;BME280;17676;52.254;4.490;2023-07-29T09:15:34;100044.50;;;22.84;100.00
31005;BME280;17676;52.254;4.490;2023-07-29T09:18:08;99965.97;;;22.90;100.00
31005;BME280;17676;52.254;4.490;2023-07-29T09:20:34;99845.19;;;22.51;100.00
31005;BME280;17676;52.254;4.490;2023-07-29T09:23:00;99771.03;;;22.14;100.00
31005;BME280;17676;52.254;4.490;2023-07-29T09:25:26;99783.91;;;22.05;100.00
31005;BME280;17676;52.254;4.490;2023-07-29T09:27:52;99791.50;;;21.59;100.00
31005;BME280;17676;52.254;4.490;2023-07-29T09:30:18;99844.91;;;21.45;100.00
31005;BME280;17676;52.254;4.490;2023-07-29T09:32:43;99881.53;;;21.45;100.00
31005;BME280;17676;52.254;4.490;2023-07-29T09:35:12;99903.44;;;21.50;100.00
31005;BME280;17676;52.254;4.490;2023-07-29T09:37:38;99920.66;;;21.10;100.00
31005;BME280;17676;52.254;4.490;2023-07-29T09:40:05;99927.28;;;20.72;100.00
31005;BME280;17676;52.254;4.490;2023-07-29T09:42:30;99969.41;;;20.68;100.00
31005;BME280;17676;52.254;4.490;2023-07-29T09:44:56;100008.84;;;20.58;100.00
31005;BME280;17676;52.254;4.490;2023-07-29T09:47:22;100038.16;;;20.68;100.00
31005;BME280;17676;52.254;4.490;2023-07-29T09:49:49;100071.75;;;20.88;100.00
31005;BME280;17676;52.254;4.490;2023-07-29T09:52:19;100071.13;;;20.96;100.00
31005;BME280;17676;52.254;4.490;2023-07-29T09:54:46;100083.34;;;20.85;100.00
31005;BME280;17676;52.254;4.490;2023-07-29T09:57:13;100103.25;;;20.77;100.00
31005;BME280;17676;52.254;4.490;2023-07-29T09:59:39;100087.63;;;20.49;100.00
31005;BME280;17676;52.254;4.490;2023-07-29T10:02:05;100122.84;;;20.47;100.00
31005;BME280;17676;52.254;4.490;2023-07-29T10:04:35;100133.22;;;20.55;100.00
31005;BME280;17676;52.254;4.490;2023-07-29T10:07:01;100148.22;;;20.39;100.00
31005;BME280;17676;52.254;4.490;2023-07-29T10:09:28;100160.78;;;20.50;100.00
31005;BME280;17676;52.254;4.490;2023-07-29T10:11:53;100178.19;;;20.36;100.00
31005;BME280;17676;52.254;4.490;2023-07-29T10:14:20;100199.28;;;20.12;100.00
31005;BME280;17676;52.254;4.490;2023-07-29T10:16:47;100196.88;;;20.00;100.00
31005;BME280;17676;52.254;4.490;2023-07-29T10:19:13;100233.09;;;20.07;100.00
31005;BME280;17676;52.254;4.490;2023-07-29T10:21:41;100231.38;;;20.21;100.00
31005;BME280;17676;52.254;4.490;2023-07-29T10:24:16;100190.69;;;20.23;100.00
31005;BME280;17676;52.254;4.490;2023-07-29T10:26:46;100191.25;;;20.20;100.00
31005;BME280;17676;52.254;4.490;2023-07-29T10:29:14;100178.47;;;20.39;100.00
31005;BME280;17676;52.254;4.490;2023-07-29T10:31:44;100186.41;;;20.69;100.00
31005;BME280;17676;52.254;4.490;2023-07-29T10:34:13;100185.47;;;21.07;100.00
31005;BME280;17676;52.254;4.490;2023-07-29T10:36:40;100171.19;;;21.05;100.00
31005;BME280;17676;52.254;4.490;2023-07-29T10:39:07;100156.72;;;20.66;100.00
31005;BME280;17676;52.254;4.490;2023-07-29T10:42:06;100146.06;;;21.12;100.00
31005;BME280;17676;52.254;4.490;2023-07-29T10:47:25;100142.78;;;21.10;100.00
31005;BME280;17676;52.254;4.490;2023-07-29T10:49:54;100158.16;;;20.87;100.00
31005;BME280;17676;52.254;4.490;2023-07-29T10:55:02;100173.22;;;20.95;100.00
31005;BME280;17676;52.254;4.490;2023-07-29T10:59:58;100168.97;;;21.49;100.00
31005;BME280;17676;52.254;4.490;2023-07-29T11:04:55;100166.28;;;21.63;100.00
31005;BME280;17676;52.254;4.490;2023-07-29T11:07:22;100162.19;;;21.42;100.00
31005;BME280;17676;52.254;4.490;2023-07-29T11:09:52;100146.41;;;21.05;100.00
31005;BME280;17676;52.254;4.490;2023-07-29T11:12:46;100144.72;;;21.09;100.00
31005;BME280;17676;52.254;4.490;2023-07-29T11:15:28;100135.94;;;21.07;100.00
31005;BME280;17676;52.254;4.490;2023-07-29T11:18:01;100147.63;;;20.94;100.00
31005;BME280;17676;52.254;4.490;2023-07-29T11:20:28;100158.75;;;20.84;100.00
31005;BME280;17676;52.254;4.490;2023-07-29T11:22:56;100169.53;;;21.04;100.00
31005;BME280;17676;52.254;4.490;2023-07-29T11:25:23;100178.94;;;21.03;100.00
31005;BME280;17676;52.254;4.490;2023-07-29T11:27:50;100184.00;;;20.91;100.00
31005;BME280;17676;52.254;4.490;2023-07-29T11:30:16;100174.91;;;21.14;100.00
31005;BME280;17676;52.254;4.490;2023-07-29T11:32:43;100180.91;;;21.63;100.00
31005;BME280;17676;52.254;4.490;2023-07-29T11:35:17;100181.03;;;21.53;100.00
31005;BME280;17676;52.254;4.490;2023-07-29T11:37:47;100167.19;;;21.58;100.00
31005;BME280;17676;52.254;4.490;2023-07-29T11:40:16;100167.59;;;21.70;100.00
31005;BME280;17676;52.254;4.490;2023-07-29T11:42:42;100152.34;;;21.54;100.00
31005;BME280;17676;52.254;4.490;2023-07-29T11:45:08;100150.53;;;21.26;100.00
31005;BME280;17676;52.254;4.490;2023-07-29T11:47:35;100150.53;;;21.26;100.00
31005;BME280;17676;52.254;4.490;2023-07-29T11:50:03;100141.03;;;20.95;100.00
31005;BME280;17676;52.254;4.490;2023-07-29T11:52:31;100160.84;;;21.39;100.00
31005;BME280;17676;52.254;4.490;2023-07-29T11:54:58;100155.06;;;21.59;100.00
31005;BME280;17676;52.254;4.490;2023-07-29T11:57:24;100136.19;;;22.03;100.00
31005;BME280;17676;52.254;4.490;2023-07-29T11:59:49;100123.03;;;22.00;100.00
31005;BME280;17676;52.254;4.490;2023-07-29T12:02:16;100094.94;;;22.30;100.00
31005;BME280;17676;52.254;4.490;2023-07-29T12:04:43;100048.66;;;22.27;100.00
31005;BME280;17676;52.254;4.490;2023-07-29T12:07:10;100004.13;;;22.20;100.00
31005;BME280;17676;52.254;4.490;2023-07-29T12:09:36;99949.06;;;22.15;100.00
31005;BME280;17676;52.254;4.490;2023-07-29T12:12:05;99908.84;;;22.41;100.00
31005;BME280;17676;52.254;4.490;2023-07-29T12:14:31;99719.13;;;22.30;100.00
31005;BME280;17676;52.254;4.490;2023-07-29T12:17:02;99638.31;;;22.07;100.00
31005;BME280;17676;52.254;4.490;2023-07-29T12:21:57;99604.56;;;22.24;100.00
31005;BME280;17676;52.254;4.490;2023-07-29T12:24:23;99565.88;;;22.07;100.00
31005;BME280;17676;52.254;4.490;2023-07-29T12:26:48;99518.66;;;21.78;100.00
31005;BME280;17676;52.254;4.490;2023-07-29T12:29:16;99519.03;;;22.15;100.00
31005;BME280;17676;52.254;4.490;2023-07-29T12:31:45;99491.88;;;22.61;100.00
31005;BME280;17676;52.254;4.490;2023-07-29T12:34:18;99420.97;;;22.87;100.00
31005;BME280;17676;52.254;4.490;2023-07-29T12:36:46;99375.53;;;23.10;100.00
31005;BME280;17676;52.254;4.490;2023-07-29T12:39:29;99309.63;;;22.83;100.00
31005;BME280;17676;52.254;4.490;2023-07-29T12:41:57;99306.41;;;22.64;100.00
31005;BME280;17676;52.254;4.490;2023-07-29T12:44:24;99295.69;;;22.88;100.00
31005;BME280;17676;52.254;4.490;2023-07-29T12:46:50;99262.31;;;23.27;100.00
31005;BME280;17676;52.254;4.490;2023-07-29T12:49:16;99226.94;;;23.21;100.00
31005;BME280;17676;52.254;4.490;2023-07-29T12:51:42;99205.72;;;22.96;100.00
31005;BME280;17676;52.254;4.490;2023-07-29T12:54:08;99216.56;;;23.01;100.00
31005;BME280;17676;52.254;4.490;2023-07-29T12:56:33;99228.03;;;23.28;100.00